Time;durP1;ratioP1;P1;durP2;ratioP2;P2;SDS_P1;SDS_P2;PMS_P1;PMS_P2;Temp;Humidity;BMP_temperature;BMP_pressure;BME280_temperature;BME280_humidity;BME280_pressure;Samples;Min_cycle;Max_cycle;Signal;HPM_P1;HPM_P2
2022/12/18 00:00:12;;;;;;;;;;;23.40;29.40;;;;;;500597;237;1979;-42
2022/12/18 00:02:13;;;;;;;;;;;23.40;29.40;;;;;;500512;237;1893;-44
2022/12/18 00:04:15;;;;;;;;;;;23.40;29.40;;;;;;500583;237;2196;-43
2022/12/18 00:06:16;;;;;;;;;;;23.40;29.40;;;;;;500768;237;2172;-40
2022/12/18 00:08:17;;;;;;;;;;;23.40;29.40;;;;;;500402;237;2168;-41
2022/12/18 00:10:19;;;;;;;;;;;23.40;29.40;;;;;;500455;237;1978;-44
2022/12/18 00:12:20;;;;;;;;;;;23.40;29.40;;;;;;500303;238;2805;-43
2022/12/18 00:14:22;;;;;;;;;;;23.50;29.40;;;;;;500437;237;2134;-45
2022/12/18 00:16:23;;;;;;;;;;;23.50;29.40;;;;;;500344;237;1781;-43
2022/12/18 00:18:25;;;;;;;;;;;23.50;29.40;;;;;;500273;237;2194;-43
2022/12/18 00:20:26;;;;;;;;;;;23.50;29.30;;;;;;500233;237;1923;-43
2022/12/18 00:22:27;;;;;;;;;;;23.50;29.30;;;;;;500325;237;1722;-41
2022/12/18 00:24:28;;;;;;;;;;;23.50;29.40;;;;;;500265;237;2359;-44
2022/12/18 00:26:30;;;;;;;;;;;23.50;29.30;;;;;;500248;237;2188;-43
2022/12/18 00:28:31;;;;;;;;;;;23.50;29.30;;;;;;500101;237;1963;-41
2022/12/18 00:30:33;;;;;;;;;;;23.50;29.30;;;;;;500099;237;1851;-43
2022/12/18 00:32:34;;;;;;;;;;;23.50;29.30;;;;;;500149;237;1746;-43
2022/12/18 00:34:35;;;;;;;;;;;23.60;29.30;;;;;;500077;237;2983;-44
2022/12/18 00:36:37;;;;;;;;;;;23.60;29.30;;;;;;499702;238;2060;-44
2022/12/18 00:38:38;;;;;;;;;;;23.50;29.20;;;;;;500212;237;1943;-44
2022/12/18 00:40:39;;;;;;;;;;;23.60;29.30;;;;;;500265;237;2191;-44
2022/12/18 00:42:56;;;;;;;;;;;23.60;29.30;;;;;;500323;237;2367;-44
2022/12/18 00:44:57;;;;;;;;;;;23.60;29.30;;;;;;500394;237;1933;-41
2022/12/18 00:46:59;;;;;;;;;;;23.60;29.30;;;;;;499640;237;2187;-43
2022/12/18 00:49:00;;;;;;;;;;;23.60;29.30;;;;;;499988;237;1829;-41
2022/12/18 00:51:01;;;;;;;;;;;23.40;29.40;;;;;;500036;237;1722;-44
2022/12/18 00:53:03;;;;;;;;;;;23.20;29.60;;;;;;500187;238;3693;-43
2022/12/18 00:55:04;;;;;;;;;;;23.00;29.80;;;;;;500329;237;1947;-40
2022/12/18 00:57:05;;;;;;;;;;;22.80;30.00;;;;;;500338;237;1739;-44
2022/12/18 00:59:07;;;;;;;;;;;22.70;30.20;;;;;;500252;237;2042;-43
2022/12/18 01:01:09;;;;;;;;;;;22.60;30.40;;;;;;500251;237;2359;-44
2022/12/18 01:03:10;;;;;;;;;;;22.40;30.50;;;;;;500272;237;2035;-43
2022/12/18 01:05:12;;;;;;;;;;;22.40;30.60;;;;;;500268;237;1806;-42
2022/12/18 01:07:13;;;;;;;;;;;22.30;30.70;;;;;;500078;237;2852;-43
2022/12/18 01:09:14;;;;;;;;;;;22.20;30.80;;;;;;500247;237;2128;-41
2022/12/18 01:11:16;;;;;;;;;;;22.20;30.90;;;;;;500097;237;2152;-43
2022/12/18 01:13:17;;;;;;;;;;;22.20;30.90;;;;;;500267;237;2055;-44
2022/12/18 01:15:19;;;;;;;;;;;22.10;31.00;;;;;;500293;237;1893;-42
2022/12/18 01:17:20;;;;;;;;;;;22.30;30.90;;;;;;500332;237;1935;-44
2022/12/18 01:19:22;;;;;;;;;;;22.50;30.60;;;;;;500354;237;1702;-44
2022/12/18 01:21:23;;;;;;;;;;;22.60;30.30;;;;;;500393;237;1589;-44
2022/12/18 01:23:24;;;;;;;;;;;22.50;30.40;;;;;;500432;237;1802;-43
2022/12/18 01:25:26;;;;;;;;;;;22.40;30.60;;;;;;500283;237;1656;-44
2022/12/18 01:27:27;;;;;;;;;;;22.20;30.80;;;;;;500297;237;2184;-43
2022/12/18 01:29:28;;;;;;;;;;;22.10;30.90;;;;;;500275;237;2326;-42
2022/12/18 01:31:30;;;;;;;;;;;22.10;31.10;;;;;;500474;237;1700;-44
2022/12/18 01:33:31;;;;;;;;;;;22.00;31.10;;;;;;500571;237;2107;-45
2022/12/18 01:35:33;;;;;;;;;;;22.00;31.10;;;;;;500421;237;1669;-43
2022/12/18 01:37:34;;;;;;;;;;;22.00;31.20;;;;;;500524;237;1745;-44
2022/12/18 01:39:36;;;;;;;;;;;22.00;31.30;;;;;;500288;237;1654;-43
2022/12/18 01:43:57;;;;;;;;;;;21.90;31.30;;;;;;500234;238;1725;-44
2022/12/18 01:45:59;;;;;;;;;;;21.90;31.30;;;;;;500351;237;1892;-44
2022/12/18 01:48:01;;;;;;;;;;;21.90;31.30;;;;;;500301;237;2161;-43
2022/12/18 01:50:02;;;;;;;;;;;21.90;31.40;;;;;;500293;237;1947;-44
2022/12/18 01:52:04;;;;;;;;;;;21.80;31.40;;;;;;500156;237;2511;-44
2022/12/18 01:54:05;;;;;;;;;;;21.90;31.40;;;;;;500171;237;1707;-41
2022/12/18 01:56:07;;;;;;;;;;;21.80;31.40;;;;;;500027;237;2000;-44
2022/12/18 01:58:08;;;;;;;;;;;21.80;31.50;;;;;;500017;237;2234;-43
2022/12/18 02:00:11;;;;;;;;;;;21.80;31.50;;;;;;500186;237;1848;-44
2022/12/18 02:02:12;;;;;;;;;;;21.80;31.50;;;;;;500085;237;2237;-44
2022/12/18 02:04:14;;;;;;;;;;;21.70;31.50;;;;;;500095;237;1798;-44
2022/12/18 02:06:15;;;;;;;;;;;21.70;31.60;;;;;;500116;237;2333;-44
2022/12/18 02:08:17;;;;;;;;;;;21.70;31.70;;;;;;500019;237;2141;-43
2022/12/18 02:10:19;;;;;;;;;;;21.60;31.60;;;;;;500198;237;2106;-44
2022/12/18 02:12:20;;;;;;;;;;;21.60;31.60;;;;;;500286;237;2007;-43
2022/12/18 02:14:23;;;;;;;;;;;21.60;31.60;;;;;;500390;237;2057;-43
2022/12/18 02:16:24;;;;;;;;;;;21.60;31.70;;;;;;500253;237;1731;-43
2022/12/18 02:18:26;;;;;;;;;;;21.60;31.70;;;;;;500335;237;2049;-41
2022/12/18 02:20:27;;;;;;;;;;;21.60;31.60;;;;;;500351;237;2111;-44
2022/12/18 02:22:30;;;;;;;;;;;21.60;31.70;;;;;;500380;237;1865;-41
2022/12/18 02:24:31;;;;;;;;;;;21.60;31.70;;;;;;500297;237;2817;-44
2022/12/18 02:26:33;;;;;;;;;;;21.60;31.70;;;;;;500499;237;1889;-44
2022/12/18 02:28:34;;;;;;;;;;;21.50;31.70;;;;;;500502;237;2183;-44
2022/12/18 02:30:36;;;;;;;;;;;21.50;31.70;;;;;;500510;237;1829;-43
2022/12/18 02:32:37;;;;;;;;;;;21.60;31.70;;;;;;500518;237;2596;-44
2022/12/18 02:34:39;;;;;;;;;;;21.50;31.70;;;;;;500477;237;2315;-44
2022/12/18 02:36:40;;;;;;;;;;;21.60;31.80;;;;;;500459;237;1534;-43
2022/12/18 02:38:41;;;;;;;;;;;21.50;31.80;;;;;;500900;237;1554;-44
2022/12/18 02:40:43;;;;;;;;;;;21.50;31.80;;;;;;500508;237;1734;-43
2022/12/18 02:42:44;;;;;;;;;;;21.50;31.80;;;;;;500429;237;1933;-44
2022/12/18 02:44:46;;;;;;;;;;;21.50;31.80;;;;;;500357;237;1653;-43
2022/12/18 02:46:47;;;;;;;;;;;21.50;31.80;;;;;;500472;237;1528;-43
2022/12/18 02:48:49;;;;;;;;;;;21.50;31.80;;;;;;500470;237;2219;-43
2022/12/18 02:50:50;;;;;;;;;;;21.50;31.80;;;;;;500174;237;1674;-44
2022/12/18 02:52:52;;;;;;;;;;;21.40;31.80;;;;;;500212;237;1741;-44
2022/12/18 02:54:53;;;;;;;;;;;21.40;31.80;;;;;;500388;237;2474;-44
2022/12/18 02:56:55;;;;;;;;;;;21.40;31.80;;;;;;500307;237;1922;-44
2022/12/18 02:58:56;;;;;;;;;;;21.40;31.80;;;;;;500314;237;1843;-44
2022/12/18 03:00:57;;;;;;;;;;;21.40;31.90;;;;;;500432;237;1672;-44
2022/12/18 03:02:59;;;;;;;;;;;21.40;31.90;;;;;;500428;237;1908;-41
2022/12/18 03:05:00;;;;;;;;;;;21.40;31.80;;;;;;500317;237;1683;-43
2022/12/18 03:07:02;;;;;;;;;;;21.40;31.90;;;;;;500144;238;1993;-41
2022/12/18 03:09:03;;;;;;;;;;;21.50;31.90;;;;;;500374;237;2112;-44
2022/12/18 03:11:05;;;;;;;;;;;21.40;31.70;;;;;;500275;237;2085;-44
2022/12/18 03:13:06;;;;;;;;;;;21.40;31.80;;;;;;500235;237;2070;-44
2022/12/18 03:15:08;;;;;;;;;;;21.50;31.80;;;;;;500261;237;2281;-43
2022/12/18 03:17:09;;;;;;;;;;;21.50;31.80;;;;;;500167;237;2005;-44
2022/12/18 03:19:11;;;;;;;;;;;21.50;31.80;;;;;;500161;237;2517;-42
2022/12/18 03:21:12;;;;;;;;;;;21.50;31.80;;;;;;500068;237;2485;-42
2022/12/18 03:23:14;;;;;;;;;;;21.50;31.70;;;;;;500088;237;2178;-42
2022/12/18 03:25:15;;;;;;;;;;;21.50;31.70;;;;;;500203;237;2357;-44
2022/12/18 03:27:16;;;;;;;;;;;21.50;31.70;;;;;;500055;238;2259;-41
2022/12/18 03:29:18;;;;;;;;;;;21.50;31.60;;;;;;500157;237;2547;-43
2022/12/18 03:31:19;;;;;;;;;;;21.60;31.60;;;;;;500171;237;1769;-43
2022/12/18 03:33:21;;;;;;;;;;;21.60;31.60;;;;;;500205;237;1913;-44
2022/12/18 03:35:22;;;;;;;;;;;21.60;31.60;;;;;;500187;237;2221;-43
2022/12/18 03:37:24;;;;;;;;;;;21.60;31.60;;;;;;500182;237;2100;-43
2022/12/18 03:39:26;;;;;;;;;;;21.60;31.60;;;;;;500148;237;1840;-44
2022/12/18 03:41:28;;;;;;;;;;;21.60;31.60;;;;;;500248;237;2327;-41
2022/12/18 03:43:29;;;;;;;;;;;21.60;31.50;;;;;;500374;237;2239;-43
2022/12/18 03:45:30;;;;;;;;;;;21.60;31.50;;;;;;500515;237;1963;-41
2022/12/18 03:47:32;;;;;;;;;;;21.60;31.50;;;;;;500302;237;2208;-44
2022/12/18 03:49:34;;;;;;;;;;;21.60;31.50;;;;;;500386;237;2318;-44
2022/12/18 03:51:35;;;;;;;;;;;21.70;31.50;;;;;;500388;237;1832;-44
2022/12/18 03:53:37;;;;;;;;;;;21.70;31.50;;;;;;500494;237;1942;-44
2022/12/18 03:55:38;;;;;;;;;;;21.60;31.40;;;;;;500350;237;2058;-44
2022/12/18 03:57:40;;;;;;;;;;;21.70;31.40;;;;;;500189;237;2093;-44
2022/12/18 03:59:41;;;;;;;;;;;21.70;31.40;;;;;;500310;237;2146;-44
2022/12/18 04:01:42;;;;;;;;;;;21.70;31.30;;;;;;500231;237;1724;-41
2022/12/18 04:03:47;;;;;;;;;;;21.70;31.40;;;;;;500245;237;2225;-41
2022/12/18 04:05:49;;;;;;;;;;;21.70;31.40;;;;;;500301;237;2213;-44
2022/12/18 04:07:51;;;;;;;;;;;21.70;31.30;;;;;;500258;237;2191;-44
2022/12/18 04:09:52;;;;;;;;;;;21.70;31.30;;;;;;500191;237;2193;-44
2022/12/18 04:11:53;;;;;;;;;;;21.70;31.30;;;;;;500256;237;2244;-43
2022/12/18 04:13:55;;;;;;;;;;;21.70;31.20;;;;;;500653;237;1708;-43
2022/12/18 04:15:57;;;;;;;;;;;21.80;31.30;;;;;;500546;237;1890;-44
2022/12/18 04:17:58;;;;;;;;;;;21.80;31.30;;;;;;500534;237;1818;-44
2022/12/18 04:20:00;;;;;;;;;;;21.80;31.30;;;;;;500530;237;2750;-40
2022/12/18 04:22:02;;;;;;;;;;;21.70;31.30;;;;;;500621;237;1178;-44
2022/12/18 04:24:03;;;;;;;;;;;21.80;31.30;;;;;;500991;237;1366;-44
2022/12/18 04:26:05;;;;;;;;;;;21.80;31.30;;;;;;500593;237;1261;-41
2022/12/18 04:28:06;;;;;;;;;;;21.80;31.20;;;;;;500986;237;2149;-44
2022/12/18 04:30:08;;;;;;;;;;;21.80;31.20;;;;;;500847;237;1095;-44
2022/12/18 04:32:09;;;;;;;;;;;21.80;31.20;;;;;;500639;237;1177;-40
2022/12/18 04:34:10;;;;;;;;;;;21.80;31.20;;;;;;500628;237;1565;-42
2022/12/18 04:36:12;;;;;;;;;;;21.80;31.30;;;;;;500506;237;1792;-44
2022/12/18 04:38:14;;;;;;;;;;;21.80;31.30;;;;;;500450;237;1852;-44
2022/12/18 04:40:16;;;;;;;;;;;21.80;31.30;;;;;;500374;237;1827;-42
2022/12/18 04:42:18;;;;;;;;;;;21.80;31.30;;;;;;500660;237;1836;-43
2022/12/18 04:44:19;;;;;;;;;;;21.80;31.30;;;;;;500488;237;1600;-43
2022/12/18 04:46:20;;;;;;;;;;;21.80;31.20;;;;;;500418;237;1915;-41
2022/12/18 04:48:22;;;;;;;;;;;22.00;31.10;;;;;;500250;237;2136;-44
2022/12/18 04:50:23;;;;;;;;;;;22.10;30.80;;;;;;500262;237;1834;-44
2022/12/18 04:52:25;;;;;;;;;;;22.30;30.60;;;;;;500340;237;1661;-40
2022/12/18 04:54:26;;;;;;;;;;;22.30;30.50;;;;;;500508;237;1601;-44
2022/12/18 04:56:28;;;;;;;;;;;22.20;30.50;;;;;;500401;237;2663;-42
2022/12/18 04:58:30;;;;;;;;;;;22.20;30.70;;;;;;500307;237;1754;-44
2022/12/18 05:00:31;;;;;;;;;;;22.00;30.80;;;;;;500249;237;2610;-44
2022/12/18 05:02:32;;;;;;;;;;;22.00;31.00;;;;;;500292;237;1975;-44
2022/12/18 05:04:34;;;;;;;;;;;22.00;31.10;;;;;;500268;237;1731;-44
2022/12/18 05:06:35;;;;;;;;;;;21.90;31.00;;;;;;500264;237;1974;-43
2022/12/18 05:08:36;;;;;;;;;;;21.90;31.00;;;;;;500442;237;2176;-44
2022/12/18 05:10:38;;;;;;;;;;;21.90;31.10;;;;;;500398;237;1671;-41
2022/12/18 05:12:57;;;;;;;;;;;21.90;31.10;;;;;;500461;237;1663;-44
2022/12/18 05:14:41;;;;;;;;;;;21.80;31.10;;;;;;499250;238;2252;-43
2022/12/18 05:16:42;;;;;;;;;;;21.80;31.20;;;;;;500506;237;1681;-44
2022/12/18 05:18:43;;;;;;;;;;;21.80;31.30;;;;;;500258;237;2062;-44
2022/12/18 05:20:45;;;;;;;;;;;21.70;31.30;;;;;;500380;237;1725;-41
2022/12/18 05:22:47;;;;;;;;;;;21.70;31.30;;;;;;500606;237;3170;-43
2022/12/18 05:24:48;;;;;;;;;;;21.70;31.40;;;;;;500437;237;1452;-44
2022/12/18 05:26:49;;;;;;;;;;;21.70;31.40;;;;;;500391;237;1587;-40
2022/12/18 05:28:51;;;;;;;;;;;21.70;31.40;;;;;;500311;237;2171;-43
2022/12/18 05:30:52;;;;;;;;;;;21.60;31.40;;;;;;499811;238;1704;-44
2022/12/18 05:32:53;;;;;;;;;;;21.60;31.50;;;;;;500226;237;1704;-44
2022/12/18 05:34:57;;;;;;;;;;;21.60;31.50;;;;;;500216;237;1840;-44
2022/12/18 05:36:57;;;;;;;;;;;21.50;31.50;;;;;;500354;237;2001;-44
2022/12/18 05:38:59;;;;;;;;;;;21.60;31.60;;;;;;500336;237;1843;-44
2022/12/18 05:41:00;;;;;;;;;;;21.50;31.50;;;;;;500285;237;1919;-44
2022/12/18 05:43:09;;;;;;;;;;;21.50;31.60;;;;;;500351;237;1838;-44
2022/12/18 05:45:11;;;;;;;;;;;21.50;31.70;;;;;;500385;237;1677;-43
2022/12/18 05:47:12;;;;;;;;;;;21.50;31.60;;;;;;500549;237;1637;-44
2022/12/18 05:49:13;;;;;;;;;;;21.50;31.60;;;;;;500818;237;2155;-44
2022/12/18 05:51:15;;;;;;;;;;;21.50;31.70;;;;;;500651;237;1230;-43
2022/12/18 05:53:16;;;;;;;;;;;21.40;31.70;;;;;;500514;237;1364;-44
2022/12/18 05:55:18;;;;;;;;;;;21.40;31.70;;;;;;500515;237;2207;-41
2022/12/18 05:57:19;;;;;;;;;;;21.40;31.70;;;;;;500424;237;1612;-41
2022/12/18 05:59:21;;;;;;;;;;;21.40;31.70;;;;;;500689;237;2466;-44
2022/12/18 06:01:22;;;;;;;;;;;21.50;31.70;;;;;;500426;237;2356;-44
2022/12/18 06:03:23;;;;;;;;;;;21.40;31.70;;;;;;500373;237;3477;-44
2022/12/18 06:05:25;;;;;;;;;;;21.40;31.70;;;;;;500390;237;1782;-44
2022/12/18 06:07:27;;;;;;;;;;;21.50;31.80;;;;;;500424;237;1613;-44
2022/12/18 06:09:29;;;;;;;;;;;21.50;31.70;;;;;;500353;237;2184;-41
2022/12/18 06:11:30;;;;;;;;;;;21.30;31.70;;;;;;500250;238;2010;-43
2022/12/18 06:13:32;;;;;;;;;;;21.40;31.80;;;;;;500295;237;1706;-44
2022/12/18 06:15:33;;;;;;;;;;;21.40;31.80;;;;;;500349;237;2318;-43
2022/12/18 06:17:34;;;;;;;;;;;21.40;31.80;;;;;;500697;237;3188;-44
2022/12/18 06:19:36;;;;;;;;;;;21.40;31.80;;;;;;500521;237;4320;-43
2022/12/18 06:21:37;;;;;;;;;;;21.40;31.80;;;;;;500655;237;2610;-44
2022/12/18 06:23:38;;;;;;;;;;;21.40;31.80;;;;;;500484;237;1653;-44
2022/12/18 06:25:40;;;;;;;;;;;21.30;31.80;;;;;;500785;237;1800;-43
2022/12/18 06:27:42;;;;;;;;;;;21.30;31.70;;;;;;500661;237;2376;-44
2022/12/18 06:29:44;;;;;;;;;;;21.40;31.80;;;;;;500534;237;2180;-42
2022/12/18 06:31:45;;;;;;;;;;;21.40;31.90;;;;;;500534;237;1602;-44
2022/12/18 06:33:46;;;;;;;;;;;21.30;31.80;;;;;;500422;237;2513;-44
2022/12/18 06:35:49;;;;;;;;;;;21.40;31.80;;;;;;500467;237;1865;-44
2022/12/18 06:37:50;;;;;;;;;;;21.40;31.80;;;;;;500427;237;2215;-43
2022/12/18 06:39:52;;;;;;;;;;;21.30;31.80;;;;;;500334;237;1972;-44
2022/12/18 06:41:54;;;;;;;;;;;21.30;31.80;;;;;;500411;237;1904;-44
2022/12/18 06:43:56;;;;;;;;;;;21.30;31.80;;;;;;500277;237;2811;-44
2022/12/18 06:45:57;;;;;;;;;;;21.30;31.80;;;;;;500429;237;1740;-44
2022/12/18 06:47:58;;;;;;;;;;;21.30;31.90;;;;;;500317;237;1672;-44
2022/12/18 06:50:00;;;;;;;;;;;21.30;31.80;;;;;;500405;237;2148;-41
2022/12/18 06:52:01;;;;;;;;;;;21.40;31.90;;;;;;500553;237;1834;-44
2022/12/18 06:54:03;;;;;;;;;;;21.30;31.80;;;;;;500393;237;2052;-44
2022/12/18 06:56:04;;;;;;;;;;;21.30;31.80;;;;;;500579;237;1809;-43
2022/12/18 06:58:06;;;;;;;;;;;21.30;31.80;;;;;;500415;237;1845;-43
2022/12/18 07:00:08;;;;;;;;;;;21.30;31.90;;;;;;500364;237;1667;-40
2022/12/18 07:02:09;;;;;;;;;;;21.30;31.90;;;;;;500471;237;2217;-44
2022/12/18 07:04:10;;;;;;;;;;;21.30;31.90;;;;;;500326;237;1494;-43
2022/12/18 07:06:12;;;;;;;;;;;21.30;31.90;;;;;;500685;238;1770;-43
2022/12/18 07:08:13;;;;;;;;;;;21.20;31.90;;;;;;500663;237;1936;-44
2022/12/18 07:10:14;;;;;;;;;;;21.30;31.90;;;;;;500588;237;2133;-43
2022/12/18 07:12:16;;;;;;;;;;;21.30;31.90;;;;;;500624;237;1607;-42
2022/12/18 07:14:17;;;;;;;;;;;21.30;31.90;;;;;;500553;237;1765;-43
2022/12/18 07:16:19;;;;;;;;;;;21.30;31.80;;;;;;500485;237;1929;-43
2022/12/18 07:18:20;;;;;;;;;;;21.30;31.80;;;;;;500477;237;1500;-44
2022/12/18 07:20:22;;;;;;;;;;;21.30;31.90;;;;;;500687;237;1504;-44
2022/12/18 07:22:23;;;;;;;;;;;21.30;31.80;;;;;;500499;237;1748;-44
2022/12/18 07:24:25;;;;;;;;;;;21.30;31.80;;;;;;500611;237;1867;-40
2022/12/18 07:26:27;;;;;;;;;;;21.30;31.70;;;;;;500544;237;1703;-44
2022/12/18 07:28:28;;;;;;;;;;;21.30;31.70;;;;;;500522;237;1966;-44
2022/12/18 07:30:30;;;;;;;;;;;21.40;31.80;;;;;;500538;237;2183;-41
2022/12/18 07:32:32;;;;;;;;;;;21.40;31.70;;;;;;500661;237;1710;-43
2022/12/18 07:34:33;;;;;;;;;;;21.40;31.70;;;;;;500468;237;2019;-44
2022/12/18 07:36:35;;;;;;;;;;;21.40;31.60;;;;;;500513;237;2106;-44
2022/12/18 07:38:37;;;;;;;;;;;21.40;31.60;;;;;;500556;237;2246;-44
2022/12/18 07:40:38;;;;;;;;;;;21.50;31.60;;;;;;500513;237;1737;-44
2022/12/18 07:42:40;;;;;;;;;;;21.40;31.50;;;;;;500577;237;1951;-44
2022/12/18 07:44:41;;;;;;;;;;;21.50;31.50;;;;;;500706;237;1943;-43
2022/12/18 07:46:43;;;;;;;;;;;21.50;31.50;;;;;;500495;237;2414;-44
2022/12/18 07:48:45;;;;;;;;;;;21.50;31.50;;;;;;500542;237;2167;-44
2022/12/18 07:50:47;;;;;;;;;;;21.50;31.50;;;;;;500606;237;1799;-43
2022/12/18 07:52:48;;;;;;;;;;;21.50;31.50;;;;;;500642;237;1783;-44
2022/12/18 07:54:50;;;;;;;;;;;21.50;31.40;;;;;;500535;238;2687;-43
2022/12/18 07:56:52;;;;;;;;;;;21.60;31.40;;;;;;500892;237;1697;-43
2022/12/18 07:58:54;;;;;;;;;;;21.50;31.40;;;;;;500444;237;1682;-44
2022/12/18 08:00:56;;;;;;;;;;;21.50;31.40;;;;;;500531;237;1808;-42
2022/12/18 08:02:56;;;;;;;;;;;21.60;31.40;;;;;;500431;237;2655;-40
2022/12/18 08:04:58;;;;;;;;;;;21.60;31.40;;;;;;500399;237;1799;-43
2022/12/18 08:07:00;;;;;;;;;;;21.60;31.40;;;;;;500481;237;1935;-44
2022/12/18 08:09:01;;;;;;;;;;;21.60;31.30;;;;;;500332;237;2188;-44
2022/12/18 08:11:04;;;;;;;;;;;21.60;31.30;;;;;;500330;237;2534;-44
2022/12/18 08:13:05;;;;;;;;;;;21.60;31.30;;;;;;500240;237;1782;-44
2022/12/18 08:15:07;;;;;;;;;;;21.60;31.40;;;;;;500374;237;1956;-44
2022/12/18 08:17:08;;;;;;;;;;;21.60;31.40;;;;;;500356;237;2079;-44
2022/12/18 08:19:09;;;;;;;;;;;21.70;31.40;;;;;;500215;237;2146;-43
2022/12/18 08:21:11;;;;;;;;;;;21.60;31.30;;;;;;500493;237;1678;-44
2022/12/18 08:23:12;;;;;;;;;;;21.60;31.30;;;;;;500322;237;1720;-44
2022/12/18 08:25:14;;;;;;;;;;;21.60;31.30;;;;;;500384;237;2330;-41
2022/12/18 08:27:15;;;;;;;;;;;21.70;31.30;;;;;;500417;237;2525;-44
2022/12/18 08:29:18;;;;;;;;;;;21.70;31.30;;;;;;500447;237;2895;-43
2022/12/18 08:31:19;;;;;;;;;;;21.70;31.30;;;;;;500381;237;1749;-43
2022/12/18 08:33:21;;;;;;;;;;;21.70;31.20;;;;;;500412;237;1939;-43
2022/12/18 08:35:22;;;;;;;;;;;21.70;31.20;;;;;;500377;237;2268;-43
2022/12/18 08:37:23;;;;;;;;;;;21.80;31.10;;;;;;500371;237;1932;-44
2022/12/18 08:39:25;;;;;;;;;;;22.00;31.00;;;;;;500429;237;1803;-44
2022/12/18 08:41:27;;;;;;;;;;;22.10;30.70;;;;;;500454;237;1726;-44
2022/12/18 08:45:48;;;;;;;;;;;22.40;30.30;;;;;;500450;238;1850;-43
2022/12/18 08:47:49;;;;;;;;;;;22.40;30.30;;;;;;500347;237;1566;-44
2022/12/18 08:49:51;;;;;;;;;;;22.20;30.40;;;;;;500326;237;2381;-43
2022/12/18 08:51:52;;;;;;;;;;;22.10;30.60;;;;;;500356;237;2173;-44
2022/12/18 08:53:56;;;;;;;;;;;22.00;30.70;;;;;;500311;237;2148;-40
2022/12/18 08:55:58;;;;;;;;;;;22.00;30.80;;;;;;500354;237;2000;-44
2022/12/18 08:57:59;;;;;;;;;;;21.90;30.90;;;;;;500347;237;2388;-44
2022/12/18 09:00:00;;;;;;;;;;;21.90;31.00;;;;;;500195;237;2151;-44
2022/12/18 09:02:02;;;;;;;;;;;21.90;31.00;;;;;;500276;237;1638;-44
2022/12/18 09:04:04;;;;;;;;;;;21.90;31.10;;;;;;500226;237;1809;-43
2022/12/18 09:06:05;;;;;;;;;;;21.80;31.00;;;;;;500116;237;2137;-44
2022/12/18 09:08:07;;;;;;;;;;;21.90;31.00;;;;;;500111;238;1876;-43
2022/12/18 09:10:08;;;;;;;;;;;21.80;31.00;;;;;;500269;237;3156;-40
2022/12/18 09:12:10;;;;;;;;;;;21.80;31.10;;;;;;500349;237;1976;-43
2022/12/18 09:14:11;;;;;;;;;;;21.80;31.20;;;;;;499989;238;2175;-44
2022/12/18 09:16:13;;;;;;;;;;;21.80;31.10;;;;;;500343;237;2179;-43
2022/12/18 09:18:14;;;;;;;;;;;21.80;31.10;;;;;;500307;237;1926;-44
2022/12/18 09:20:16;;;;;;;;;;;21.70;31.10;;;;;;500258;237;2114;-44
2022/12/18 09:22:17;;;;;;;;;;;21.70;31.20;;;;;;500531;237;1954;-43
2022/12/18 09:24:19;;;;;;;;;;;21.70;31.20;;;;;;500350;237;2285;-44
2022/12/18 09:26:20;;;;;;;;;;;21.70;31.30;;;;;;500328;237;2650;-44
2022/12/18 09:28:21;;;;;;;;;;;21.60;31.30;;;;;;500257;237;2159;-41
2022/12/18 09:30:23;;;;;;;;;;;21.70;31.30;;;;;;500074;237;2661;-41
2022/12/18 09:32:25;;;;;;;;;;;21.60;31.30;;;;;;500114;238;3005;-40
2022/12/18 09:34:26;;;;;;;;;;;21.60;31.40;;;;;;500331;237;2092;-44
2022/12/18 09:36:28;;;;;;;;;;;21.60;31.40;;;;;;500224;237;2249;-44
2022/12/18 09:38:29;;;;;;;;;;;21.60;31.40;;;;;;500295;237;2027;-44
2022/12/18 09:40:31;;;;;;;;;;;21.50;31.40;;;;;;500428;237;1816;-44
2022/12/18 09:42:33;;;;;;;;;;;21.50;31.40;;;;;;500398;237;2268;-43
2022/12/18 09:44:34;;;;;;;;;;;21.50;31.50;;;;;;500321;237;1743;-44
2022/12/18 09:46:36;;;;;;;;;;;21.50;31.60;;;;;;500435;237;2385;-44
2022/12/18 09:48:37;;;;;;;;;;;21.50;31.50;;;;;;500482;237;1800;-43
2022/12/18 09:50:39;;;;;;;;;;;21.50;31.50;;;;;;500769;237;2193;-43
2022/12/18 09:52:40;;;;;;;;;;;21.50;31.60;;;;;;500437;237;2521;-40
2022/12/18 09:54:42;;;;;;;;;;;21.40;31.60;;;;;;500666;237;1833;-43
2022/12/18 09:56:44;;;;;;;;;;;21.40;31.60;;;;;;500354;237;3260;-44
2022/12/18 09:58:46;;;;;;;;;;;21.40;31.60;;;;;;500469;237;1967;-42
2022/12/18 10:00:47;;;;;;;;;;;21.40;31.70;;;;;;500311;237;1768;-43
2022/12/18 10:02:49;;;;;;;;;;;21.40;31.70;;;;;;500410;237;2351;-44
2022/12/18 10:04:50;;;;;;;;;;;21.40;31.70;;;;;;500490;237;2433;-43
2022/12/18 10:06:52;;;;;;;;;;;21.40;31.70;;;;;;500409;237;2625;-44
2022/12/18 10:08:53;;;;;;;;;;;21.40;31.70;;;;;;500382;237;2302;-42
2022/12/18 10:10:55;;;;;;;;;;;21.40;31.70;;;;;;500180;237;2168;-43
2022/12/18 10:12:57;;;;;;;;;;;21.40;31.70;;;;;;500445;237;2281;-44
2022/12/18 10:14:58;;;;;;;;;;;21.40;31.70;;;;;;500308;237;3153;-44
2022/12/18 10:17:00;;;;;;;;;;;21.40;31.70;;;;;;500425;237;1945;-41
2022/12/18 10:19:02;;;;;;;;;;;21.30;31.80;;;;;;500489;237;1958;-44
2022/12/18 10:21:03;;;;;;;;;;;21.30;31.70;;;;;;500579;237;1730;-44
2022/12/18 10:23:05;;;;;;;;;;;21.30;31.80;;;;;;500405;237;1964;-44
2022/12/18 10:25:06;;;;;;;;;;;21.30;31.80;;;;;;500297;237;1757;-44
2022/12/18 10:27:08;;;;;;;;;;;21.30;31.80;;;;;;500338;237;2230;-44
2022/12/18 10:29:09;;;;;;;;;;;21.30;31.80;;;;;;500180;237;1888;-44
2022/12/18 10:31:11;;;;;;;;;;;21.30;31.70;;;;;;500270;237;2197;-44
2022/12/18 10:33:15;;;;;;;;;;;21.30;31.80;;;;;;500310;237;1822;-44
2022/12/18 10:35:16;;;;;;;;;;;21.30;31.80;;;;;;500334;237;1691;-44
2022/12/18 10:37:19;;;;;;;;;;;21.20;31.80;;;;;;500511;237;2020;-44
2022/12/18 10:39:22;;;;;;;;;;;21.30;31.80;;;;;;500232;237;2116;-44
2022/12/18 10:41:25;;;;;;;;;;;21.20;31.80;;;;;;500197;238;2068;-43
2022/12/18 10:43:23;;;;;;;;;;;21.20;31.80;;;;;;500058;238;2108;-43
2022/12/18 10:45:25;;;;;;;;;;;21.30;31.80;;;;;;500316;237;2628;-44
2022/12/18 10:47:27;;;;;;;;;;;21.30;31.80;;;;;;500317;237;2085;-40
2022/12/18 10:49:28;;;;;;;;;;;21.30;31.80;;;;;;500412;237;1711;-41
2022/12/18 10:51:30;;;;;;;;;;;21.20;31.80;;;;;;500422;237;2440;-42
2022/12/18 10:53:31;;;;;;;;;;;21.30;31.80;;;;;;500459;237;1660;-43
2022/12/18 10:55:32;;;;;;;;;;;21.30;31.80;;;;;;500454;237;1921;-43
2022/12/18 10:57:34;;;;;;;;;;;21.30;31.80;;;;;;500560;237;2775;-44
2022/12/18 10:59:35;;;;;;;;;;;21.30;31.80;;;;;;500618;237;2330;-43
2022/12/18 11:01:37;;;;;;;;;;;21.20;31.80;;;;;;500538;237;2605;-43
2022/12/18 11:03:39;;;;;;;;;;;21.20;31.80;;;;;;500742;237;2438;-43
2022/12/18 11:05:43;;;;;;;;;;;21.20;31.80;;;;;;500595;237;2046;-44
2022/12/18 11:07:45;;;;;;;;;;;21.20;31.80;;;;;;500596;237;1558;-41
2022/12/18 11:09:46;;;;;;;;;;;21.20;31.80;;;;;;500824;237;1671;-44
2022/12/18 11:11:48;;;;;;;;;;;21.20;31.80;;;;;;500908;237;2097;-41
2022/12/18 11:13:50;;;;;;;;;;;21.20;31.80;;;;;;500719;237;1806;-43
2022/12/18 11:15:51;;;;;;;;;;;21.20;31.80;;;;;;500429;237;1682;-44
2022/12/18 11:17:53;;;;;;;;;;;21.20;31.80;;;;;;500420;237;2029;-41
2022/12/18 11:19:54;;;;;;;;;;;21.30;31.80;;;;;;500449;237;1695;-42
2022/12/18 11:21:56;;;;;;;;;;;21.20;31.80;;;;;;500386;238;1999;-43
2022/12/18 11:23:57;;;;;;;;;;;21.20;31.80;;;;;;500527;237;1932;-41
2022/12/18 11:25:59;;;;;;;;;;;21.20;31.80;;;;;;500542;237;1631;-41
2022/12/18 11:28:00;;;;;;;;;;;21.20;31.80;;;;;;500657;237;1695;-43
2022/12/18 11:30:02;;;;;;;;;;;21.20;31.80;;;;;;500639;237;2176;-44
2022/12/18 11:32:03;;;;;;;;;;;21.20;31.70;;;;;;500498;237;1684;-44
2022/12/18 11:34:05;;;;;;;;;;;21.30;31.80;;;;;;500766;237;1522;-41
2022/12/18 11:36:06;;;;;;;;;;;21.30;31.70;;;;;;500562;237;1663;-44
2022/12/18 11:38:08;;;;;;;;;;;21.30;31.60;;;;;;500582;237;2495;-43
2022/12/18 11:40:09;;;;;;;;;;;21.40;31.60;;;;;;500572;237;2085;-44
2022/12/18 11:42:11;;;;;;;;;;;21.40;31.70;;;;;;500764;237;1439;-44
2022/12/18 11:44:12;;;;;;;;;;;21.40;31.70;;;;;;500596;237;1582;-42
2022/12/18 11:46:13;;;;;;;;;;;21.40;31.60;;;;;;500694;237;1790;-40
2022/12/18 11:48:15;;;;;;;;;;;21.40;31.60;;;;;;500483;237;1615;-43
2022/12/18 11:50:16;;;;;;;;;;;21.40;31.60;;;;;;500475;237;2132;-44
2022/12/18 11:52:18;;;;;;;;;;;21.40;31.50;;;;;;500349;237;2405;-44
2022/12/18 11:54:19;;;;;;;;;;;21.40;31.50;;;;;;500340;238;2042;-44
2022/12/18 11:56:21;;;;;;;;;;;21.40;31.50;;;;;;500369;237;2641;-43
2022/12/18 11:58:23;;;;;;;;;;;21.40;31.50;;;;;;500424;237;1875;-43
2022/12/18 12:00:24;;;;;;;;;;;21.40;31.50;;;;;;500346;237;2599;-43
2022/12/18 12:02:26;;;;;;;;;;;21.40;31.50;;;;;;500416;237;1889;-41